Time;durP1;ratioP1;P1;durP2;ratioP2;P2;SDS_P1;SDS_P2;PMS_P1;PMS_P2;Temp;Humidity;BMP_temperature;BMP_pressure;BME280_temperature;BME280_humidity;BME280_pressure;Samples;Min_cycle;Max_cycle;Signal;HPM_P1;HPM_P2
2024/03/27 00:00:29;;;;;;;5.97;1.08;;;;;;;6.67;100.00;96304.19;4815434;29;20056;-83
2024/03/27 00:02:55;;;;;;;3.75;1.50;;;;;;;6.58;100.00;96295.81;4831906;29;20042;-83
2024/03/27 00:05:21;;;;;;;5.70;1.27;;;;;;;6.60;100.00;96299.00;4783892;29;20061;-83
2024/03/27 00:07:47;;;;;;;5.43;1.45;;;;;;;6.60;100.00;96295.56;4828869;29;20493;-83
2024/03/27 00:10:13;;;;;;;4.80;1.17;;;;;;;6.56;100.00;96290.00;4801838;29;20118;-82
2024/03/27 00:12:48;;;;;;;2.88;1.40;;;;;;;6.54;100.00;96284.97;4805045;29;20604;-82
2024/03/27 00:15:15;;;;;;;3.88;1.20;;;;;;;6.50;100.00;96270.69;4830037;29;20057;-80
2024/03/27 00:17:41;;;;;;;3.38;1.25;;;;;;;6.50;100.00;96285.63;4820095;29;20066;-82
2024/03/27 00:20:08;;;;;;;1.52;1.08;;;;;;;6.42;100.00;96276.22;4831131;29;20551;-83
2024/03/27 00:22:34;;;;;;;3.28;1.25;;;;;;;6.32;100.00;96277.53;4817624;29;20052;-85
2024/03/27 00:25:00;;;;;;;1.67;1.20;;;;;;;6.28;100.00;96291.31;4830132;29;20482;-83
2024/03/27 00:27:26;;;;;;;3.78;1.40;;;;;;;6.20;100.00;96290.59;4815192;29;20034;-82
2024/03/27 00:29:55;;;;;;;1.85;1.20;;;;;;;6.15;100.00;96289.66;4847505;29;20045;-81
2024/03/27 00:32:21;;;;;;;4.63;1.60;;;;;;;6.04;100.00;96273.63;4816552;29;20077;-82
2024/03/27 00:34:47;;;;;;;3.72;1.73;;;;;;;6.02;100.00;96293.22;4848628;29;20069;-85
2024/03/27 00:37:18;;;;;;;2.47;1.85;;;;;;;5.99;100.00;96291.81;4811622;29;20841;-84
2024/03/27 00:39:46;;;;;;;2.53;1.58;;;;;;;5.86;100.00;96284.09;4833108;29;20038;-85
2024/03/27 00:42:17;;;;;;;6.03;1.70;;;;;;;5.80;100.00;96278.69;4832296;29;20045;-84
2024/03/27 00:44:48;;;;;;;2.20;1.40;;;;;;;5.83;100.00;96282.69;4820225;29;20057;-81
2024/03/27 00:47:21;;;;;;;;;;;;;;;5.75;100.00;96267.28;4817011;29;20037;-82
2024/03/27 00:49:47;;;;;;;3.00;1.58;;;;;;;5.72;100.00;96268.50;4817792;29;19921;-81
2024/03/27 00:52:16;;;;;;;4.07;2.10;;;;;;;5.79;100.00;96268.44;4831063;29;20072;-81
2024/03/27 00:55:02;;;;;;;3.95;2.03;;;;;;;5.76;100.00;96274.91;4846647;29;20053;-82
2024/03/27 00:57:27;;;;;;;3.40;1.92;;;;;;;5.74;100.00;96265.66;4818512;29;20038;-81
2024/03/27 00:59:55;;;;;;;4.35;2.13;;;;;;;5.70;100.00;96262.69;4863882;29;20038;-83
2024/03/27 01:02:24;;;;;;;3.05;2.45;;;;;;;5.75;100.00;96262.81;4818743;29;20408;-85
2024/03/27 01:04:50;;;;;;;2.63;2.33;;;;;;;5.77;100.00;96252.94;4818265;29;20129;-82
2024/03/27 01:07:16;;;;;;;2.78;2.17;;;;;;;5.79;100.00;96250.09;4816934;29;20123;-82
2024/03/27 01:09:42;;;;;;;6.45;2.83;;;;;;;5.72;100.00;96247.53;4819090;29;20042;-84
2024/03/27 01:12:08;;;;;;;3.60;2.70;;;;;;;5.70;100.00;96239.09;4818241;29;20541;-85
2024/03/27 01:14:35;;;;;;;2.40;2.20;;;;;;;5.70;100.00;96241.72;4823360;29;20533;-81
2024/03/27 01:17:00;;;;;;;3.10;2.22;;;;;;;5.66;100.00;96237.91;4830767;29;20062;-82
2024/03/27 01:19:33;;;;;;;3.70;2.38;;;;;;;5.67;100.00;96239.53;4815410;29;20067;-84
2024/03/27 01:22:01;;;;;;;4.32;2.33;;;;;;;5.61;100.00;96235.97;4816820;29;20038;-85
2024/03/27 01:24:27;;;;;;;3.40;2.38;;;;;;;5.62;100.00;96240.19;4832736;29;20042;-84
2024/03/27 01:26:53;;;;;;;3.83;2.00;;;;;;;5.64;100.00;96232.91;4820565;29;20323;-85
2024/03/27 01:29:19;;;;;;;8.45;2.80;;;;;;;5.64;100.00;96234.75;4818491;29;20069;-82
2024/03/27 01:31:45;;;;;;;2.70;1.88;;;;;;;5.65;100.00;96231.09;4819781;29;20046;-81
2024/03/27 01:34:10;;;;;;;2.55;2.00;;;;;;;5.61;100.00;96217.63;4818282;29;20108;-84
2024/03/27 01:36:36;;;;;;;2.95;2.63;;;;;;;5.58;100.00;96212.81;4830948;29;20541;-84
2024/03/27 01:39:02;;;;;;;3.20;1.98;;;;;;;5.55;100.00;96202.78;4808995;29;20611;-84
2024/03/27 01:41:28;;;;;;;2.95;2.42;;;;;;;5.50;100.00;96200.81;4835636;29;20045;-85
2024/03/27 01:43:54;;;;;;;3.85;2.05;;;;;;;5.50;100.00;96205.22;4814994;29;20390;-85
2024/03/27 01:46:23;;;;;;;2.88;1.45;;;;;;;5.49;100.00;96193.97;4822274;29;20042;-86
2024/03/27 01:48:49;;;;;;;1.90;1.40;;;;;;;5.49;100.00;96191.34;4808061;29;20038;-82
2024/03/27 01:51:16;;;;;;;3.35;1.67;;;;;;;5.47;100.00;96180.28;4818832;29;20042;-82
2024/03/27 01:53:47;;;;;;;2.42;1.58;;;;;;;5.42;100.00;96170.47;4822911;29;20395;-82
2024/03/27 01:56:15;;;;;;;2.92;1.50;;;;;;;5.42;100.00;96170.47;4817783;29;20053;-81
2024/03/27 01:58:42;;;;;;;3.50;1.40;;;;;;;5.42;100.00;96167.03;4822633;29;20042;-85
2024/03/27 02:01:09;;;;;;;1.92;1.27;;;;;;;5.38;100.00;96163.25;4817594;29;20109;-83
2024/03/27 02:03:35;;;;;;;1.48;1.27;;;;;;;5.34;100.00;96155.03;4835792;29;20090;-81
2024/03/27 02:06:02;;;;;;;1.88;1.40;;;;;;;5.34;100.00;96148.00;4830100;29;20037;-81
2024/03/27 02:08:28;;;;;;;5.07;1.60;;;;;;;5.26;100.00;96143.03;4849976;29;20600;-81
2024/03/27 02:10:59;;;;;;;1.98;0.98;;;;;;;5.18;100.00;96144.13;4848448;29;20148;-80
2024/03/27 02:13:32;;;;;;;2.20;1.30;;;;;;;5.16;100.00;96132.28;4866799;29;20034;-81
2024/03/27 02:16:01;;;;;;;3.20;2.08;;;;;;;5.20;100.00;96126.38;4819991;29;20053;-81
2024/03/27 02:18:31;;;;;;;2.40;1.60;;;;;;;5.22;100.00;96115.69;4851537;29;20056;-81
2024/03/27 02:21:00;;;;;;;4.88;2.35;;;;;;;5.21;100.00;96107.03;4824541;29;20041;-84
2024/03/27 02:23:33;;;;;;;4.63;2.88;;;;;;;5.31;100.00;96103.91;4862992;29;20045;-84
2024/03/27 02:26:16;;;;;;;2.15;1.95;;;;;;;5.33;100.00;96088.00;4833431;29;20038;-84
2024/03/27 02:28:45;;;;;;;3.38;2.30;;;;;;;5.37;100.00;96086.53;4849691;29;20038;-85
2024/03/27 02:31:11;;;;;;;5.03;1.52;;;;;;;5.38;100.00;96082.91;4844351;29;20088;-84
2024/03/27 02:33:37;;;;;;;4.68;1.50;;;;;;;5.41;100.00;96079.03;4842382;29;20500;-84
2024/03/27 02:36:03;;;;;;;4.65;1.65;;;;;;;5.43;100.00;96075.16;4810260;29;20040;-83
2024/03/27 02:38:29;;;;;;;1.50;1.40;;;;;;;5.51;100.00;96068.06;4856180;29;20481;-84
2024/03/27 02:40:55;;;;;;;8.77;1.60;;;;;;;5.54;100.00;96060.53;4821271;29;20033;-81
2024/03/27 02:43:21;;;;;;;4.90;1.38;;;;;;;5.59;100.00;96054.63;4842875;29;20048;-81
2024/03/27 02:45:47;;;;;;;3.33;1.48;;;;;;;5.62;100.00;96045.53;4836707;29;20037;-82
2024/03/27 02:48:14;;;;;;;2.63;1.20;;;;;;;5.63;100.00;96037.47;4802891;29;20050;-81
2024/03/27 02:50:43;;;;;;;5.47;1.05;;;;;;;5.70;100.00;96040.78;4852104;29;20026;-81
2024/03/27 02:53:08;;;;;;;1.85;0.73;;;;;;;5.68;100.00;96024.50;4814308;29;20142;-81
2024/03/27 02:55:40;;;;;;;3.90;0.93;;;;;;;5.65;100.00;96030.19;4839572;29;20464;-80
2024/03/27 02:58:06;;;;;;;2.78;0.65;;;;;;;5.64;100.00;96020.72;4838962;29;20037;-80
2024/03/27 03:00:32;;;;;;;3.38;1.10;;;;;;;5.62;100.00;96022.78;4813306;29;20469;-84
2024/03/27 03:02:58;;;;;;;0.93;0.80;;;;;;;5.63;100.00;96013.88;4838038;29;20045;-83
2024/03/27 03:05:23;;;;;;;4.35;0.75;;;;;;;5.66;100.00;96010.81;4860022;29;20450;-81
2024/03/27 03:07:52;;;;;;;10.80;1.25;;;;;;;5.63;100.00;96000.00;4852454;29;20046;-81
2024/03/27 03:10:18;;;;;;;3.58;1.05;;;;;;;5.53;100.00;96006.56;4850648;29;20035;-81
2024/03/27 03:12:44;;;;;;;1.25;0.70;;;;;;;5.44;100.00;95997.41;4824504;29;20045;-81
2024/03/27 03:15:10;;;;;;;1.98;0.75;;;;;;;5.41;100.00;95990.00;4868487;29;20037;-82
2024/03/27 03:17:45;;;;;;;3.20;2.07;;;;;;;5.35;100.00;95981.22;4836960;29;20056;-83
2024/03/27 03:20:12;;;;;;;2.08;0.98;;;;;;;5.31;100.00;95983.47;4815070;29;20033;-81
2024/03/27 03:22:38;;;;;;;4.47;1.30;;;;;;;5.27;100.00;95977.06;4835819;29;20476;-81
2024/03/27 03:25:04;;;;;;;0.95;0.93;;;;;;;5.25;100.00;95966.03;4821207;29;20105;-84
2024/03/27 03:27:31;;;;;;;2.40;1.15;;;;;;;5.11;100.00;95954.13;4820017;29;20217;-83
2024/03/27 03:29:57;;;;;;;3.25;1.63;;;;;;;5.17;100.00;95955.88;4855966;29;20112;-81
2024/03/27 03:32:22;;;;;;;2.88;1.90;;;;;;;5.28;100.00;95947.28;4868720;29;20187;-81
2024/03/27 03:34:48;;;;;;;3.53;2.10;;;;;;;5.29;100.00;95945.44;4859638;29;20036;-84
2024/03/27 03:37:14;;;;;;;3.13;2.15;;;;;;;5.31;100.00;95932.94;4845684;29;20089;-85
2024/03/27 03:39:40;;;;;;;6.40;3.78;;;;;;;5.39;100.00;95932.63;4827706;29;20038;-80
2024/03/27 03:42:15;;;;;;;6.32;2.33;;;;;;;5.44;100.00;95922.28;4826979;29;20101;-81
2024/03/27 03:44:41;;;;;;;5.90;2.33;;;;;;;5.45;100.00;95912.59;4832883;29;20040;-84
2024/03/27 03:47:07;;;;;;;4.28;2.53;;;;;;;5.45;100.00;95908.16;4852680;29;20454;-83
2024/03/27 03:49:33;;;;;;;5.38;2.60;;;;;;;5.49;100.00;95902.47;4838389;29;20045;-84
2024/03/27 03:51:59;;;;;;;3.38;2.60;;;;;;;5.51;100.00;95893.38;4823817;29;20575;-84
2024/03/27 03:54:25;;;;;;;6.88;2.58;;;;;;;5.56;100.00;95888.25;4849802;29;20097;-81
2024/03/27 03:57:21;;;;;;;;;;;;;;;;;;;;;
2024/03/27 04:00:15;;;;;;;4.70;2.38;;;;;;;5.52;100.00;95878.47;4833311;29;20037;-84
2024/03/27 04:02:41;;;;;;;5.95;2.05;;;;;;;5.47;100.00;95873.91;4854906;29;20124;-84
2024/03/27 04:05:07;;;;;;;2.97;0.93;;;;;;;5.39;100.00;95868.97;4859022;29;20121;-83
2024/03/27 04:07:42;;;;;;;1.10;0.70;;;;;;;5.41;100.00;95866.94;4805623;29;20049;-84
2024/03/27 04:10:08;;;;;;;3.47;0.77;;;;;;;5.32;100.00;95863.84;4825344;29;20117;-88
2024/03/27 04:12:38;;;;;;;1.98;0.65;;;;;;;5.29;100.00;95853.81;4843088;29;20085;-87
2024/03/27 04:15:16;;;;;;;1.60;0.57;;;;;;;5.31;100.00;95852.59;4842817;29;20634;-87
2024/03/27 04:18:09;;;;;;;0.43;0.30;;;;;;;5.35;100.00;95837.22;4843697;29;20059;-87
2024/03/27 04:20:42;;;;;;;2.17;0.73;;;;;;;5.41;100.00;95835.53;4844647;29;20042;-93
2024/03/27 04:23:11;;;;;;;1.88;0.95;;;;;;;5.42;100.00;95840.53;4859021;29;20037;-95
2024/03/27 04:26:15;;;;;;;0.50;0.50;;;;;;;5.39;100.00;95832.31;4826288;29;20045;-86
2024/03/27 04:28:46;;;;;;;1.40;0.50;;;;;;;5.39;100.00;95832.31;4843533;29;20037;-90
2024/03/27 04:31:12;;;;;;;6.03;0.60;;;;;;;5.41;100.00;95830.28;4842368;29;20429;-86
2024/03/27 04:33:39;;;;;;;1.40;0.77;;;;;;;5.33;100.00;95832.22;4859049;29;20068;-88
2024/03/27 04:36:05;;;;;;;2.40;0.73;;;;;;;5.47;100.00;95824.16;4844662;29;20703;-87
2024/03/27 04:38:31;;;;;;;1.60;0.73;;;;;;;5.46;100.00;95815.47;4843360;29;20048;-87
2024/03/27 04:41:14;;;;;;;0.80;0.52;;;;;;;5.52;100.00;95815.59;4832289;29;20037;-87
2024/03/27 04:43:40;;;;;;;2.78;0.70;;;;;;;5.51;100.00;95817.41;4842724;29;20076;-87
2024/03/27 04:46:06;;;;;;;2.70;0.70;;;;;;;5.57;100.00;95813.88;4843292;29;20503;-88
2024/03/27 04:48:32;;;;;;;2.15;0.60;;;;;;;5.56;100.00;95798.41;4825781;29;20034;-89
2024/03/27 04:51:01;;;;;;;0.93;0.60;;;;;;;5.53;100.00;95797.03;4807732;29;20085;-90
2024/03/27 04:53:37;;;;;;;0.50;0.45;;;;;;;5.60;100.00;95794.31;4816746;29;20495;-88
2024/03/27 04:56:04;;;;;;;2.28;0.88;;;;;;;5.61;100.00;95784.63;4807326;29;20037;-94
2024/03/27 04:58:36;;;;;;;1.27;0.40;;;;;;;5.59;100.00;95783.03;4836377;29;20049;-90
2024/03/27 05:01:08;;;;;;;1.00;0.30;;;;;;;5.56;100.00;95773.03;4843661;29;20064;-89
2024/03/27 05:04:07;;;;;;;2.88;0.60;;;;;;;5.67;100.00;95771.41;4851328;29;20128;-96
2024/03/27 05:07:22;;;;;;;0.15;0.10;;;;;;;5.66;100.00;95764.59;4830870;29;20045;-94
2024/03/27 05:13:42;;;;;;;1.23;0.38;;;;;;;5.78;100.00;95761.16;4787511;29;20051;-91
2024/03/27 05:16:17;;;;;;;3.95;0.50;;;;;;;5.82;100.00;95751.81;4758305;29;20402;-91
2024/03/27 05:18:43;;;;;;;4.38;0.65;;;;;;;5.77;100.00;95743.84;4787238;29;20055;-91
2024/03/27 05:21:13;;;;;;;5.40;2.08;;;;;;;5.75;100.00;95735.44;4828053;29;20041;-91
2024/03/27 05:23:39;;;;;;;4.07;0.60;;;;;;;5.74;100.00;95739.88;4815189;29;20046;-92
2024/03/27 05:26:04;;;;;;;1.58;0.60;;;;;;;5.74;100.00;95739.06;4813508;29;20093;-91
2024/03/27 05:28:30;;;;;;;2.97;0.47;;;;;;;5.66;100.00;95733.16;4847807;29;20073;-91
2024/03/27 05:30:56;;;;;;;2.47;0.57;;;;;;;5.77;100.00;95730.75;4827211;29;20392;-91
2024/03/27 05:33:22;;;;;;;0.50;0.32;;;;;;;5.78;100.00;95722.66;4860548;29;20045;-89
2024/03/27 05:35:50;;;;;;;7.80;0.68;;;;;;;5.80;100.00;95710.13;4828403;29;20061;-95
2024/03/27 05:38:20;;;;;;;2.90;0.30;;;;;;;5.88;100.00;95710.78;4843610;29;20037;-96
2024/03/27 05:40:54;;;;;;;2.45;0.45;;;;;;;5.81;100.00;95718.78;4829662;29;20029;-95
2024/03/27 05:43:32;;;;;;;1.10;0.20;;;;;;;5.87;100.00;95711.81;4838142;29;20041;-96
2024/03/27 05:45:58;;;;;;;1.48;0.30;;;;;;;5.86;100.00;95712.84;4824150;29;20045;-90
2024/03/27 05:48:24;;;;;;;3.15;0.40;;;;;;;6.01;100.00;95713.16;4852415;29;20041;-90
2024/03/27 05:50:54;;;;;;;1.75;0.40;;;;;;;6.04;100.00;95699.63;4842237;29;20040;-94
2024/03/27 05:53:23;;;;;;;0.75;0.10;;;;;;;6.03;100.00;95690.13;4812587;29;20366;-94
2024/03/27 05:55:57;;;;;;;2.85;0.20;;;;;;;6.14;100.00;95699.00;4859288;29;20093;-96
2024/03/27 05:58:24;;;;;;;3.35;0.30;;;;;;;6.05;100.00;95680.22;4821298;29;20101;-95
2024/03/27 06:00:52;;;;;;;0.45;0.20;;;;;;;6.15;100.00;95691.94;4851033;29;20072;-90
2024/03/27 06:03:18;;;;;;;0.80;0.00;;;;;;;6.02;100.00;95680.66;4816123;29;20461;-83
2024/03/27 06:05:44;;;;;;;1.10;0.10;;;;;;;6.14;100.00;95679.88;4826743;29;20041;-95
2024/03/27 06:08:10;;;;;;;0.43;0.10;;;;;;;6.20;100.00;95671.88;4812714;29;20049;-94
2024/03/27 06:10:36;;;;;;;1.80;0.20;;;;;;;6.28;100.00;95667.25;4817462;29;20037;-84
2024/03/27 06:13:06;;;;;;;3.92;0.20;;;;;;;6.40;100.00;95664.59;4840656;29;20378;-88
2024/03/27 06:15:32;;;;;;;0.93;0.17;;;;;;;6.41;100.00;95660.94;4855880;29;20029;-89
2024/03/27 06:18:01;;;;;;;2.22;0.20;;;;;;;6.49;100.00;95662.38;4852564;29;20121;-88
2024/03/27 06:20:27;;;;;;;3.17;0.20;;;;;;;6.47;100.00;95657.38;4807438;29;20045;-89
2024/03/27 06:22:54;;;;;;;2.67;0.20;;;;;;;6.48;100.00;95655.53;4826782;29;20034;-89
2024/03/27 06:25:20;;;;;;;1.70;0.20;;;;;;;6.42;100.00;95652.81;4809402;29;20132;-83
2024/03/27 06:27:46;;;;;;;3.78;0.20;;;;;;;6.34;100.00;95666.31;4852126;29;20136;-91
2024/03/27 06:30:15;;;;;;;0.40;0.10;;;;;;;6.07;100.00;95665.06;4842341;29;20530;-91
2024/03/27 06:32:47;;;;;;;0.20;0.10;;;;;;;5.77;100.00;95660.00;4823230;29;20046;-95
2024/03/27 06:35:21;;;;;;;0.38;0.05;;;;;;;5.56;100.00;95660.41;4813699;29;20049;-91
2024/03/27 06:37:47;;;;;;;0.22;0.00;;;;;;;5.44;100.00;95676.16;4820606;29;20065;-91
2024/03/27 06:40:14;;;;;;;0.32;0.10;;;;;;;5.32;100.00;95667.50;4837418;29;20654;-93
2024/03/27 06:42:42;;;;;;;0.00;0.00;;;;;;;5.25;100.00;95677.28;4825464;29;20076;-93
2024/03/27 06:45:09;;;;;;;0.22;0.00;;;;;;;5.19;100.00;95692.88;4809746;29;20557;-91
2024/03/27 06:47:35;;;;;;;0.00;0.00;;;;;;;5.11;100.00;95689.81;4834040;29;20159;-88
2024/03/27 06:50:01;;;;;;;0.25;0.00;;;;;;;5.08;100.00;95696.31;4832834;29;20548;-89
2024/03/27 06:52:27;;;;;;;0.00;0.00;;;;;;;5.00;100.00;95694.03;4863836;29;20045;-89
2024/03/27 06:54:53;;;;;;;0.00;0.00;;;;;;;4.97;100.00;95705.72;4842536;29;20690;-93
2024/03/27 06:57:19;;;;;;;0.45;0.10;;;;;;;4.96;100.00;95710.19;4814162;29;20039;-85
2024/03/27 06:59:45;;;;;;;2.67;0.00;;;;;;;4.94;100.00;95714.03;4832861;29;20050;-88
2024/03/27 07:02:11;;;;;;;0.00;0.00;;;;;;;4.87;100.00;95706.31;4825579;29;20128;-84
2024/03/27 07:04:37;;;;;;;0.00;0.00;;;;;;;4.90;100.00;95708.47;4863698;29;20584;-89
2024/03/27 07:07:03;;;;;;;0.00;0.00;;;;;;;4.89;100.00;95709.47;4829035;29;20102;-88
2024/03/27 07:09:30;;;;;;;0.00;0.00;;;;;;;4.92;100.00;95716.88;4870300;29;20061;-86
2024/03/27 07:11:56;;;;;;;0.00;0.00;;;;;;;4.86;100.00;95704.69;4807532;29;20038;-85
2024/03/27 07:14:22;;;;;;;0.05;0.00;;;;;;;4.84;100.00;95717.22;4872219;29;20040;-83
2024/03/27 07:16:48;;;;;;;0.20;0.00;;;;;;;4.87;100.00;95719.38;4835351;29;20090;-84
2024/03/27 07:19:14;;;;;;;1.45;0.10;;;;;;;4.84;100.00;95717.22;4812077;29;20057;-85
2024/03/27 07:21:41;;;;;;;0.00;0.00;;;;;;;4.87;100.00;95711.53;4825808;29;20106;-88
2024/03/27 07:24:07;;;;;;;0.00;0.00;;;;;;;4.84;100.00;95709.38;4858325;29;20038;-85
2024/03/27 07:26:40;;;;;;;0.00;0.00;;;;;;;4.84;100.00;95712.75;4844774;29;20056;-86
2024/03/27 07:29:05;;;;;;;0.00;0.00;;;;;;;4.84;100.00;95702.28;4853664;29;20048;-83
2024/03/27 07:31:32;;;;;;;0.10;0.00;;;;;;;4.91;100.00;95704.81;4870086;29;20026;-83
2024/03/27 07:33:58;;;;;;;0.57;0.00;;;;;;;4.99;100.00;95708.09;4821987;29;20045;-83
2024/03/27 07:36:24;;;;;;;0.00;0.00;;;;;;;5.07;100.00;95713.81;4835220;29;20094;-83
2024/03/27 07:38:50;;;;;;;0.35;0.00;;;;;;;5.09;100.00;95710.97;4827346;29;20141;-83
2024/03/27 07:41:16;;;;;;;0.00;0.00;;;;;;;5.12;100.00;95718.38;4803179;29;20037;-83
2024/03/27 07:43:42;;;;;;;0.00;0.00;;;;;;;5.13;100.00;95714.72;4838474;29;20096;-83
2024/03/27 07:46:08;;;;;;;0.00;0.00;;;;;;;5.13;100.00;95713.94;4828086;29;20112;-83
2024/03/27 07:48:34;;;;;;;3.20;1.13;;;;;;;5.21;100.00;95724.88;4840178;29;20065;-82
2024/03/27 07:51:01;;;;;;;0.32;0.00;;;;;;;5.18;100.00;95717.47;4834349;29;20120;-83
2024/03/27 07:53:27;;;;;;;0.35;0.10;;;;;;;5.17;100.00;95726.34;4836325;29;20626;-83
2024/03/27 07:55:57;;;;;;;0.65;0.00;;;;;;;5.20;100.00;95725.91;4855335;29;20037;-84
2024/03/27 07:58:23;;;;;;;0.03;0.00;;;;;;;5.27;100.00;95712.69;4820642;29;20037;-84
2024/03/27 08:00:52;;;;;;;0.43;0.10;;;;;;;5.38;100.00;95712.91;4847649;29;20057;-83
2024/03/27 08:03:18;;;;;;;0.00;0.00;;;;;;;5.42;100.00;95720.09;4851606;29;20072;-83
2024/03/27 08:05:44;;;;;;;0.10;0.10;;;;;;;5.55;100.00;95732.16;4824299;29;20045;-84
2024/03/27 08:08:10;;;;;;;0.63;0.17;;;;;;;5.62;100.00;95726.81;4838154;29;20132;-83
2024/03/27 08:10:37;;;;;;;0.40;0.10;;;;;;;5.66;100.00;95716.63;4806733;29;20037;-82
2024/03/27 08:13:03;;;;;;;1.02;0.20;;;;;;;5.72;100.00;95720.97;4845763;29;20067;-82
2024/03/27 08:15:29;;;;;;;0.88;0.10;;;;;;;5.82;100.00;95721.19;4841821;29;20037;-84
2024/03/27 08:17:56;;;;;;;1.27;0.28;;;;;;;5.86;100.00;95718.09;4850624;29;20045;-83
2024/03/27 08:20:23;;;;;;;3.17;0.63;;;;;;;5.78;100.00;95706.94;4839066;29;20033;-84
2024/03/27 08:22:49;;;;;;;0.08;0.08;;;;;;;5.73;100.00;95711.28;4838578;29;20053;-86
2024/03/27 08:25:15;;;;;;;1.88;0.20;;;;;;;5.64;100.00;95710.84;4870764;29;20615;-84
2024/03/27 08:27:41;;;;;;;1.23;0.25;;;;;;;5.58;100.00;95730.88;4849261;29;20336;-84
2024/03/27 08:30:07;;;;;;;1.00;0.20;;;;;;;5.47;100.00;95727.25;4835531;29;20121;-82
2024/03/27 08:32:33;;;;;;;0.75;0.20;;;;;;;5.36;100.00;95731.47;4848782;29;20041;-82
2024/03/27 08:34:59;;;;;;;2.00;0.30;;;;;;;5.33;100.00;95735.34;4821444;29;20144;-84
2024/03/27 08:37:25;;;;;;;0.60;0.10;;;;;;;5.33;100.00;95734.53;4850459;29;20512;-84
2024/03/27 08:39:51;;;;;;;2.63;0.22;;;;;;;5.36;100.00;95731.47;4853914;29;20037;-83
2024/03/27 08:42:17;;;;;;;1.23;0.20;;;;;;;5.41;100.00;95739.44;4820424;29;20138;-83
2024/03/27 08:44:43;;;;;;;2.00;0.20;;;;;;;5.48;100.00;95744.56;4851387;29;20659;-85
2024/03/27 08:47:09;;;;;;;1.05;0.15;;;;;;;5.48;100.00;95755.03;4833971;29;20075;-84
2024/03/27 08:49:35;;;;;;;4.35;0.38;;;;;;;5.39;100.00;95748.53;4837603;29;20077;-85
2024/03/27 08:52:01;;;;;;;1.20;0.30;;;;;;;5.42;100.00;95748.09;4804503;29;20041;-84
2024/03/27 08:54:27;;;;;;;1.75;0.47;;;;;;;5.46;100.00;95736.91;4835476;29;20041;-83
2024/03/27 08:56:53;;;;;;;2.70;0.20;;;;;;;5.56;100.00;95741.59;4851251;29;20128;-83
2024/03/27 08:59:19;;;;;;;1.90;0.20;;;;;;;5.66;100.00;95732.34;4858078;29;20034;-84
2024/03/27 09:01:45;;;;;;;4.43;0.77;;;;;;;5.77;100.00;95741.22;4815752;29;20037;-86
2024/03/27 09:04:11;;;;;;;1.55;0.22;;;;;;;5.89;100.00;95734.13;4835401;29;20068;-83
2024/03/27 09:06:37;;;;;;;0.70;0.20;;;;;;;5.90;100.00;95732.31;4838867;29;20037;-83
2024/03/27 09:09:03;;;;;;;3.40;0.20;;;;;;;5.83;100.00;95728.00;4814687;29;20777;-82
2024/03/27 09:11:29;;;;;;;0.65;0.15;;;;;;;5.76;100.00;95729.16;4841605;29;20038;-82
2024/03/27 09:13:55;;;;;;;1.33;0.30;;;;;;;5.77;100.00;95721.06;4850606;29;20064;-85
2024/03/27 09:16:21;;;;;;;1.40;0.20;;;;;;;5.84;100.00;95723.56;4838011;29;20697;-85
2024/03/27 09:18:47;;;;;;;0.60;0.38;;;;;;;6.04;100.00;95723.19;4834442;29;20517;-85
2024/03/27 09:21:13;;;;;;;1.60;0.73;;;;;;;6.01;100.00;95725.44;4851909;29;20082;-85
2024/03/27 09:23:39;;;;;;;1.42;0.20;;;;;;;6.04;100.00;95725.00;4789751;29;20481;-82
2024/03/27 09:26:05;;;;;;;3.55;0.20;;;;;;;6.10;100.00;95726.72;4846952;29;20052;-82
2024/03/27 09:28:34;;;;;;;1.13;0.25;;;;;;;6.25;100.00;95723.59;4806945;29;20050;-81
2024/03/27 09:31:03;;;;;;;1.45;0.38;;;;;;;6.39;100.00;95726.72;4817348;29;20049;-81
2024/03/27 09:33:29;;;;;;;0.90;0.30;;;;;;;6.54;100.00;95723.59;4797501;29;20133;-81
2024/03/27 09:35:56;;;;;;;2.83;0.30;;;;;;;6.61;100.00;95725.28;4848508;29;20757;-81
2024/03/27 09:38:21;;;;;;;2.13;0.45;;;;;;;6.60;100.00;95716.59;4818189;29;20500;-81
2024/03/27 09:40:54;;;;;;;2.92;0.63;;;;;;;6.75;100.00;95726.56;4828041;29;20042;-83
2024/03/27 09:43:21;;;;;;;0.77;0.15;;;;;;;6.82;100.00;95721.97;4816497;29;20148;-81
2024/03/27 09:45:48;;;;;;;1.27;0.80;;;;;;;6.71;100.00;95714.94;4845866;29;20431;-86
2024/03/27 09:48:15;;;;;;;8.52;0.47;;;;;;;6.56;100.00;95711.03;4817566;29;20048;-86
2024/03/27 09:50:41;;;;;;;2.45;0.32;;;;;;;6.63;100.00;95713.50;4801169;29;20556;-85
2024/03/27 09:53:08;;;;;;;3.15;0.60;;;;;;;6.64;100.00;95715.09;4789735;29;20617;-86
2024/03/27 09:55:35;;;;;;;4.45;0.35;;;;;;;6.88;100.00;95717.56;4801860;29;20030;-83
2024/03/27 09:58:05;;;;;;;3.85;0.50;;;;;;;7.03;100.00;95708.34;4832854;29;20173;-82
2024/03/27 10:00:33;;;;;;;1.23;0.50;;;;;;;7.06;100.00;95700.81;4832750;29;20046;-85
2024/03/27 10:02:59;;;;;;;2.03;0.22;;;;;;;7.12;100.00;95700.88;4833569;29;20133;-84
2024/03/27 10:05:46;;;;;;;3.00;0.50;;;;;;;7.18;100.00;95702.56;4824912;29;20480;-88
2024/03/27 10:08:14;;;;;;;5.28;0.70;;;;;;;7.11;100.00;95712.41;4820264;29;20071;-85
2024/03/27 10:10:40;;;;;;;4.00;0.40;;;;;;;7.10;100.00;95706.38;4818079;29;20616;-86
2024/03/27 10:13:07;;;;;;;1.88;0.20;;;;;;;7.28;100.00;95707.94;4815162;29;20102;-84
2024/03/27 10:15:34;;;;;;;1.98;0.35;;;;;;;7.37;100.00;95713.59;4837353;29;20509;-81
2024/03/27 10:18:01;;;;;;;3.97;0.50;;;;;;;7.41;100.00;95711.25;4830153;29;20061;-81
2024/03/27 10:20:29;;;;;;;3.92;0.40;;;;;;;7.30;100.00;95715.59;4868685;29;20033;-87
2024/03/27 10:22:55;;;;;;;5.50;0.57;;;;;;;7.26;100.00;95715.25;4841276;29;20037;-86
2024/03/27 10:25:22;;;;;;;6.03;1.65;;;;;;;7.21;100.00;95707.31;4847776;29;20046;-87
2024/03/27 10:27:49;;;;;;;6.97;0.35;;;;;;;7.04;100.00;95708.13;4834014;29;20034;-85
2024/03/27 10:30:15;;;;;;;3.13;0.30;;;;;;;6.91;100.00;95716.31;4818851;29;20636;-85
2024/03/27 10:32:40;;;;;;;1.35;0.20;;;;;;;6.79;100.00;95716.38;4847271;29;20080;-87
2024/03/27 10:35:08;;;;;;;3.35;0.55;;;;;;;6.91;100.00;95724.19;4821656;29;20073;-81
2024/03/27 10:37:34;;;;;;;3.13;0.40;;;;;;;7.03;100.00;95716.22;4846760;29;20041;-81
2024/03/27 10:40:03;;;;;;;1.55;0.22;;;;;;;7.15;100.00;95718.78;4852477;29;20064;-84
2024/03/27 10:42:33;;;;;;;2.65;0.43;;;;;;;7.14;100.00;95728.50;4835062;29;20081;-84
2024/03/27 10:45:00;;;;;;;1.67;0.40;;;;;;;7.08;100.00;95739.94;4837042;29;20065;-81
2024/03/27 10:47:37;;;;;;;3.80;0.50;;;;;;;6.99;100.00;95734.28;4850112;29;20544;-81
2024/03/27 10:50:09;;;;;;;1.50;0.22;;;;;;;6.93;100.00;95738.66;4819408;29;20068;-84
2024/03/27 10:52:35;;;;;;;3.25;0.15;;;;;;;6.91;100.00;95740.72;4825742;29;20045;-83
2024/03/27 10:55:07;;;;;;;1.75;0.20;;;;;;;7.03;100.00;95740.66;4853473;29;20045;-81
2024/03/27 10:57:33;;;;;;;1.65;0.30;;;;;;;7.17;100.00;95722.75;4850414;29;20068;-82
2024/03/27 11:00:01;;;;;;;2.92;0.45;;;;;;;7.37;100.00;95718.03;4822390;29;20109;-83
2024/03/27 11:02:34;;;;;;;1.65;0.30;;;;;;;7.30;100.00;95723.47;4858217;29;20129;-83
2024/03/27 11:05:04;;;;;;;1.65;0.10;;;;;;;7.24;100.00;95721.78;4837105;29;20124;-87
2024/03/27 11:07:35;;;;;;;2.22;0.55;;;;;;;7.27;100.00;95716.88;4825511;29;20033;-83
2024/03/27 11:10:00;;;;;;;1.38;0.20;;;;;;;7.24;100.00;95721.78;4838928;29;20041;-88
2024/03/27 11:12:27;;;;;;;2.08;0.30;;;;;;;7.29;100.00;95714.78;4814996;29;20041;-85
2024/03/27 11:14:53;;;;;;;0.43;0.08;;;;;;;7.39;100.00;95713.34;4836211;29;20037;-83
2024/03/27 11:17:27;;;;;;;0.65;0.10;;;;;;;7.48;100.00;95706.66;4825576;29;20050;-83
2024/03/27 11:19:59;;;;;;;3.60;0.40;;;;;;;7.52;100.00;95705.13;4838480;29;20045;-82
2024/03/27 11:22:26;;;;;;;1.83;0.30;;;;;;;7.60;100.00;95717.03;4821077;29;20728;-84
2024/03/27 11:24:52;;;;;;;5.70;0.20;;;;;;;7.79;100.00;95714.94;4837684;29;20033;-81
2024/03/27 11:27:28;;;;;;;0.15;0.00;;;;;;;8.12;100.00;95707.16;4850758;29;20125;-82
2024/03/27 11:29:57;;;;;;;1.75;0.10;;;;;;;8.14;100.00;95691.13;4837020;29;20041;-82
2024/03/27 11:32:23;;;;;;;0.75;0.20;;;;;;;8.13;100.00;95710.56;4809981;29;20041;-82
2024/03/27 11:34:50;;;;;;;2.92;0.20;;;;;;;8.06;100.00;95701.03;4839815;29;20448;-85
2024/03/27 11:37:16;;;;;;;4.13;0.20;;;;;;;7.97;100.00;95722.75;4839696;29;20060;-84
2024/03/27 11:39:42;;;;;;;0.00;0.00;;;;;;;7.94;100.00;95713.53;4841025;29;20041;-83
2024/03/27 11:42:08;;;;;;;4.80;0.30;;;;;;;8.20;100.00;95721.72;4834019;29;20125;-86